Time;durP1;ratioP1;P1;durP2;ratioP2;P2;SDS_P1;SDS_P2;PMS_P1;PMS_P2;Temp;Humidity;BMP_temperature;BMP_pressure;BME280_temperature;BME280_humidity;BME280_pressure;Samples;Min_cycle;Max_cycle;Signal;HPM_P1;HPM_P2
2021/12/24 00:01:58;;;;;;;0.30;0.10;;;-0.30;99.90;;;;;;5077560;28;20255;-86
2021/12/24 00:04:26;;;;;;;0.30;0.20;;;-0.30;99.90;;;;;;5070874;28;20194;-84
2021/12/24 00:06:53;;;;;;;0.30;0.10;;;-0.20;99.90;;;;;;5068657;28;20558;-83
2021/12/24 00:09:23;;;;;;;0.30;0.10;;;-0.10;99.90;;;;;;5069155;28;20272;-86
2021/12/24 00:11:51;;;;;;;0.65;0.65;;;-0.10;99.90;;;;;;5080799;28;20250;-86
2021/12/24 00:14:19;;;;;;;0.30;0.20;;;-0.10;99.90;;;;;;5073111;28;20202;-84
2021/12/24 00:16:50;;;;;;;0.30;0.20;;;0.00;99.90;;;;;;5066752;28;20698;-84
2021/12/24 00:19:24;;;;;;;0.30;0.10;;;0.00;99.90;;;;;;5067664;28;20206;-84
2021/12/24 00:35:45;;;;;;;0.30;0.10;;;0.20;99.90;;;;;;5070600;28;20245;-84
2021/12/24 00:38:12;;;;;;;0.30;0.10;;;0.20;99.90;;;;;;5069916;28;20228;-83
2021/12/24 00:40:42;;;;;;;0.75;0.75;;;0.20;99.90;;;;;;5065901;28;20203;-87
2021/12/24 00:43:10;;;;;;;0.30;0.20;;;0.20;99.90;;;;;;5072254;28;20524;-84
2021/12/24 00:45:39;;;;;;;0.30;0.10;;;0.20;99.90;;;;;;5088748;28;20222;-85
2021/12/24 00:48:08;;;;;;;0.50;0.50;;;0.20;99.90;;;;;;5088829;28;20194;-84
2021/12/24 00:50:50;;;;;;;0.30;0.30;;;0.10;99.90;;;;;;5060733;28;20202;-86
2021/12/24 00:56:05;;;;;;;0.30;0.10;;;0.10;99.90;;;;;;5069361;28;20728;-85
2021/12/24 00:58:33;;;;;;;0.30;0.10;;;0.10;99.90;;;;;;5073631;28;20210;-84
2021/12/24 01:01:00;;;;;;;0.30;0.20;;;0.00;99.90;;;;;;5066913;28;20945;-84
2021/12/24 01:03:28;;;;;;;5.70;1.85;;;0.10;99.90;;;;;;5076254;28;20593;-84
2021/12/24 01:05:55;;;;;;;0.30;0.10;;;0.20;99.90;;;;;;5069711;28;20200;-84
2021/12/24 01:08:24;;;;;;;0.30;0.30;;;0.30;99.90;;;;;;5069784;28;20201;-84
2021/12/24 01:10:54;;;;;;;0.30;0.20;;;0.30;99.90;;;;;;5084526;28;20203;-84
2021/12/24 01:13:21;;;;;;;0.30;0.10;;;0.40;99.90;;;;;;5083989;28;20632;-84
2021/12/24 01:15:55;;;;;;;0.30;0.10;;;0.40;99.90;;;;;;5084758;28;20492;-84
2021/12/24 01:18:31;;;;;;;0.30;0.10;;;0.40;99.90;;;;;;5073452;28;20199;-85
2021/12/24 01:21:12;;;;;;;0.30;0.20;;;0.40;99.90;;;;;;5085125;28;20195;-84
2021/12/24 01:23:48;;;;;;;0.30;0.10;;;0.40;99.90;;;;;;5070616;28;20196;-84
2021/12/24 01:26:20;;;;;;;0.30;0.20;;;0.40;99.90;;;;;;5070593;28;20206;-85
2021/12/24 01:39:54;;;;;;;0.30;0.10;;;0.50;99.90;;;;;;5070724;28;20295;-84
2021/12/24 01:42:42;;;;;;;0.30;0.22;;;0.40;99.90;;;;;;5071535;28;20661;-84
2021/12/24 01:45:22;;;;;;;0.82;0.35;;;0.40;99.90;;;;;;5058950;28;20289;-86
2021/12/24 01:47:49;;;;;;;0.30;0.30;;;0.50;99.90;;;;;;5069635;28;20657;-84
2021/12/24 01:50:17;;;;;;;0.30;0.20;;;0.60;99.90;;;;;;5071657;28;20243;-84
2021/12/24 01:52:48;;;;;;;0.30;0.10;;;0.50;99.90;;;;;;5088735;28;20217;-86
2021/12/24 01:55:17;;;;;;;0.30;0.10;;;0.50;99.90;;;;;;5074658;28;20285;-84
2021/12/24 01:57:44;;;;;;;0.30;0.10;;;0.60;99.90;;;;;;5070718;28;20194;-82
2021/12/24 02:00:14;;;;;;;0.30;0.10;;;0.50;99.90;;;;;;5090368;28;20199;-87
2021/12/24 02:02:42;;;;;;;0.85;0.85;;;0.50;99.90;;;;;;5082407;28;20346;-84
2021/12/24 02:05:09;;;;;;;0.30;0.20;;;0.50;99.90;;;;;;5072013;28;20216;-85
2021/12/24 02:07:37;;;;;;;0.40;0.40;;;0.40;99.90;;;;;;5072438;28;20255;-83
2021/12/24 02:10:05;;;;;;;0.30;0.20;;;0.20;99.90;;;;;;5071564;28;20475;-83
2021/12/24 02:12:35;;;;;;;0.30;0.10;;;0.10;99.90;;;;;;5071807;28;20223;-84
2021/12/24 02:15:03;;;;;;;0.30;0.10;;;0.10;99.90;;;;;;5070683;28;20202;-84
2021/12/24 02:28:42;;;;;;;0.43;0.43;;;-0.40;99.90;;;;;;5034787;28;20618;-83
2021/12/24 02:31:12;;;;;;;1.10;1.10;;;-0.50;99.90;;;;;;5089542;28;20246;-83
2021/12/24 02:33:40;;;;;;;0.30;0.10;;;-0.60;99.90;;;;;;5068575;28;20224;-83
2021/12/24 02:36:09;;;;;;;0.30;0.10;;;-0.60;99.90;;;;;;5069162;28;20199;-83
2021/12/24 02:38:37;;;;;;;0.65;0.65;;;-0.60;99.90;;;;;;5071401;28;20628;-83
2021/12/24 02:41:04;;;;;;;0.30;0.20;;;-0.50;99.90;;;;;;5076607;28;20238;-83
2021/12/24 02:43:32;;;;;;;0.30;0.10;;;-0.40;99.90;;;;;;5071575;28;20268;-83
2021/12/24 02:46:07;;;;;;;0.30;0.10;;;-0.30;99.90;;;;;;5092338;28;20195;-83
2021/12/24 02:49:00;;;;;;;0.30;0.10;;;-0.40;99.90;;;;;;5114546;28;20209;-84
2021/12/24 02:54:16;;;;;;;0.30;0.20;;;-0.20;99.90;;;;;;5097425;28;20338;-83
2021/12/24 02:56:48;;;;;;;0.60;0.40;;;-0.10;99.90;;;;;;5081291;28;20234;-85
2021/12/24 02:59:18;;;;;;;0.40;0.30;;;0.10;99.90;;;;;;5070783;28;20306;-83
2021/12/24 03:01:48;;;;;;;0.50;0.45;;;0.20;99.90;;;;;;5070255;28;20230;-82
2021/12/24 03:04:16;;;;;;;0.30;0.20;;;0.30;99.90;;;;;;5081785;28;20244;-83
2021/12/24 03:06:46;;;;;;;1.17;1.10;;;0.40;99.90;;;;;;5088964;28;20200;-83
2021/12/24 03:09:16;;;;;;;0.93;0.77;;;0.40;99.90;;;;;;5082021;28;20238;-87
2021/12/24 03:11:44;;;;;;;0.30;0.10;;;0.60;99.90;;;;;;5070938;28;20738;-84
2021/12/24 03:14:11;;;;;;;0.30;0.10;;;0.70;99.90;;;;;;5069802;28;20292;-83
2021/12/24 03:16:40;;;;;;;0.30;0.17;;;0.70;99.90;;;;;;5068509;28;20220;-83
2021/12/24 03:19:08;;;;;;;0.30;0.20;;;0.80;99.90;;;;;;5075048;28;20833;-83
2021/12/24 03:21:44;;;;;;;0.30;0.20;;;0.80;99.90;;;;;;5072792;28;20199;-83
2021/12/24 03:26:57;;;;;;;0.40;0.40;;;0.90;99.90;;;;;;5077896;28;20547;-83
2021/12/24 03:29:24;;;;;;;0.30;0.20;;;0.90;99.90;;;;;;5089768;28;20590;-87
2021/12/24 03:31:51;;;;;;;2.38;2.28;;;0.80;99.90;;;;;;5088454;28;20509;-87
2021/12/24 03:34:21;;;;;;;0.30;0.20;;;0.90;99.90;;;;;;5081498;28;20193;-83
2021/12/24 03:36:48;;;;;;;0.70;0.68;;;0.90;99.90;;;;;;5082902;28;20305;-84
2021/12/24 03:39:17;;;;;;;0.30;0.20;;;1.00;99.90;;;;;;5075170;28;20223;-83
2021/12/24 03:41:46;;;;;;;0.30;0.10;;;1.10;99.90;;;;;;5082131;28;20466;-87
2021/12/24 03:44:15;;;;;;;0.40;0.30;;;1.10;99.90;;;;;;5085962;28;20233;-83
2021/12/24 03:46:52;;;;;;;0.30;0.20;;;1.10;99.90;;;;;;5088305;28;21277;-87
2021/12/24 03:49:29;;;;;;;0.30;0.10;;;1.10;99.90;;;;;;5078110;28;20458;-83
2021/12/24 03:52:02;;;;;;;0.30;0.10;;;1.00;99.90;;;;;;5081125;28;20282;-83
2021/12/24 03:57:16;;;;;;;0.30;0.10;;;1.00;99.90;;;;;;5058563;28;20207;-85
2021/12/24 03:59:44;;;;;;;0.63;0.63;;;1.00;99.90;;;;;;5052628;28;20666;-83
2021/12/24 04:02:11;;;;;;;0.30;0.10;;;1.00;99.90;;;;;;5052019;28;20656;-85
2021/12/24 04:04:38;;;;;;;0.30;0.10;;;1.00;99.90;;;;;;5055765;28;20612;-83
2021/12/24 04:07:06;;;;;;;0.30;0.10;;;1.00;99.90;;;;;;5067610;28;20836;-84
2021/12/24 04:09:36;;;;;;;0.30;0.20;;;0.90;99.90;;;;;;5067581;28;20439;-84
2021/12/24 04:12:04;;;;;;;0.30;0.20;;;0.90;99.90;;;;;;5067342;28;20462;-83
2021/12/24 04:14:31;;;;;;;0.30;0.20;;;1.00;99.90;;;;;;5052922;28;20280;-84
2021/12/24 04:16:58;;;;;;;0.30;0.10;;;1.20;99.90;;;;;;5060781;28;20602;-87
2021/12/24 04:24:49;;;;;;;0.30;0.10;;;1.30;99.90;;;;;;5052944;28;20440;-83
2021/12/24 04:25:00;;;;;;;0.50;0.50;;;1.40;99.90;;;;;;5071444;28;20242;-84
2021/12/24 04:27:29;;;;;;;0.30;0.10;;;1.40;99.90;;;;;;5072580;28;20252;-83
2021/12/24 04:30:04;;;;;;;0.40;0.33;;;1.50;99.90;;;;;;5067495;28;20203;-83
2021/12/24 04:32:47;;;;;;;0.30;0.10;;;1.50;99.90;;;;;;5056677;28;20491;-85
2021/12/24 04:35:36;;;;;;;0.30;0.10;;;1.60;99.90;;;;;;5052078;28;20201;-84
2021/12/24 04:38:25;;;;;;;0.30;0.23;;;1.70;99.90;;;;;;5072305;28;20229;-83
2021/12/24 04:51:57;;;;;;;0.60;0.60;;;1.30;99.90;;;;;;5078733;28;20991;-84
2021/12/24 05:02:50;;;;;;;0.50;0.50;;;1.40;99.90;;;;;;5079678;28;20529;-84
2021/12/24 05:05:22;;;;;;;0.30;0.10;;;1.50;99.90;;;;;;5078644;28;20489;-83
2021/12/24 05:08:13;;;;;;;0.30;0.20;;;1.60;99.90;;;;;;5075871;28;20466;-83
2021/12/24 05:10:41;;;;;;;0.30;0.20;;;1.70;99.90;;;;;;5073196;28;20970;-84
2021/12/24 05:13:11;;;;;;;0.40;0.40;;;1.70;99.90;;;;;;5052337;28;20633;-84
2021/12/24 05:15:40;;;;;;;0.30;0.10;;;1.60;99.90;;;;;;5068535;28;20229;-87
2021/12/24 05:18:17;;;;;;;0.30;0.20;;;1.40;99.90;;;;;;5086261;28;20484;-84
2021/12/24 05:23:29;;;;;;;0.30;0.10;;;1.50;99.90;;;;;;5088039;28;20575;-84
2021/12/24 05:25:56;;;;;;;0.30;0.10;;;1.60;99.90;;;;;;5070743;28;20463;-84
2021/12/24 05:28:24;;;;;;;0.60;0.60;;;1.60;99.90;;;;;;5075214;28;20451;-84
2021/12/24 05:30:51;;;;;;;0.30;0.10;;;1.70;99.90;;;;;;5068664;28;20827;-85
2021/12/24 05:33:18;;;;;;;0.30;0.10;;;1.80;99.90;;;;;;5062494;28;21033;-84
2021/12/24 05:35:46;;;;;;;0.30;0.10;;;1.90;99.90;;;;;;5070928;28;20462;-84
2021/12/24 05:38:14;;;;;;;1.47;0.80;;;2.00;99.90;;;;;;5095994;28;20499;-84
2021/12/24 05:40:41;;;;;;;0.30;0.20;;;2.00;99.90;;;;;;5091784;28;20459;-83
2021/12/24 05:43:08;;;;;;;0.50;0.50;;;2.00;99.90;;;;;;5093243;28;20474;-83
2021/12/24 05:45:37;;;;;;;0.30;0.13;;;2.00;99.90;;;;;;5091174;28;20448;-83
2021/12/24 05:48:04;;;;;;;0.30;0.20;;;2.00;99.90;;;;;;5083080;28;20452;-84
2021/12/24 05:50:31;;;;;;;0.30;0.20;;;2.10;99.90;;;;;;5077728;28;20455;-84
2021/12/24 05:52:58;;;;;;;0.30;0.20;;;2.00;99.90;;;;;;5083606;28;20482;-84
2021/12/24 05:55:25;;;;;;;0.30;0.20;;;2.00;99.90;;;;;;5072009;28;20455;-83
2021/12/24 05:57:53;;;;;;;0.30;0.10;;;1.90;99.90;;;;;;5080220;28;20515;-86
2021/12/24 06:00:20;;;;;;;0.30;0.10;;;1.70;99.90;;;;;;5086687;28;20484;-84
2021/12/24 06:02:48;;;;;;;1.53;1.43;;;1.60;99.90;;;;;;5089530;28;20486;-84
2021/12/24 06:05:16;;;;;;;0.47;0.47;;;1.50;99.90;;;;;;5084314;28;20463;-84
2021/12/24 06:07:43;;;;;;;0.30;0.20;;;1.40;99.90;;;;;;5082727;28;20503;-84
2021/12/24 06:10:12;;;;;;;0.30;0.10;;;1.40;99.90;;;;;;5079332;28;20477;-83
2021/12/24 06:12:39;;;;;;;0.53;0.53;;;1.40;99.90;;;;;;5072194;28;20501;-84
2021/12/24 06:15:08;;;;;;;0.30;0.20;;;1.30;99.90;;;;;;5073901;28;20448;-84
2021/12/24 06:17:37;;;;;;;0.57;0.57;;;1.30;99.90;;;;;;5070244;28;21016;-84
2021/12/24 06:20:08;;;;;;;0.30;0.10;;;1.40;99.90;;;;;;5068698;28;20440;-84
2021/12/24 06:22:35;;;;;;;0.40;0.20;;;1.40;99.90;;;;;;5073386;28;20887;-85
2021/12/24 06:25:03;;;;;;;0.30;0.23;;;1.40;99.90;;;;;;5084250;28;20987;-85
2021/12/24 06:27:31;;;;;;;0.30;0.10;;;1.40;99.90;;;;;;5076755;28;20514;-84
2021/12/24 06:29:58;;;;;;;0.30;0.10;;;1.40;99.90;;;;;;5076909;28;20496;-87
2021/12/24 06:32:25;;;;;;;0.30;0.20;;;1.40;99.90;;;;;;5071782;28;20448;-85
2021/12/24 06:34:52;;;;;;;1.30;1.23;;;1.50;99.90;;;;;;5071706;28;20541;-87
2021/12/24 06:37:21;;;;;;;0.30;0.10;;;1.50;99.90;;;;;;5051501;28;20525;-87
2021/12/24 06:39:48;;;;;;;0.30;0.20;;;1.50;99.90;;;;;;5054036;28;20493;-85
2021/12/24 06:42:15;;;;;;;0.40;0.30;;;1.40;99.90;;;;;;5081903;28;20973;-84
2021/12/24 06:44:42;;;;;;;0.30;0.20;;;1.50;99.90;;;;;;5071940;28;21004;-82
2021/12/24 06:47:09;;;;;;;0.30;0.17;;;1.50;99.90;;;;;;5069404;28;21014;-86
2021/12/24 06:49:36;;;;;;;0.30;0.10;;;1.50;99.90;;;;;;5070897;28;20520;-84
2021/12/24 06:52:04;;;;;;;0.97;0.97;;;1.50;99.90;;;;;;5069650;28;20514;-84
2021/12/24 06:54:33;;;;;;;0.30;0.20;;;1.50;99.90;;;;;;5071673;28;20499;-84
2021/12/24 06:57:01;;;;;;;0.30;0.10;;;1.60;99.90;;;;;;5076529;28;20447;-87
2021/12/24 06:59:28;;;;;;;0.40;0.30;;;1.60;99.90;;;;;;5071055;28;20467;-84
2021/12/24 07:01:59;;;;;;;0.57;0.53;;;1.60;99.90;;;;;;5071687;28;20455;-85
2021/12/24 07:04:26;;;;;;;1.90;1.70;;;1.70;99.90;;;;;;5070617;28;20456;-85
2021/12/24 07:06:53;;;;;;;0.30;0.10;;;1.70;99.90;;;;;;5070068;28;20456;-83
2021/12/24 07:09:20;;;;;;;0.30;0.20;;;1.90;99.90;;;;;;5074672;28;20470;-85
2021/12/24 07:11:48;;;;;;;0.30;0.10;;;1.90;99.90;;;;;;5063742;28;20517;-87
2021/12/24 07:14:16;;;;;;;0.30;0.10;;;2.20;99.90;;;;;;5081857;28;20581;-84
2021/12/24 07:16:43;;;;;;;0.50;0.50;;;2.60;99.90;;;;;;5089252;28;20435;-84
2021/12/24 07:19:10;;;;;;;0.40;0.30;;;2.70;99.90;;;;;;5070725;28;20505;-84
2021/12/24 07:21:37;;;;;;;0.30;0.10;;;2.70;99.90;;;;;;5077969;28;20475;-84
2021/12/24 07:24:06;;;;;;;0.30;0.10;;;2.80;99.90;;;;;;5089283;28;20546;-84
2021/12/24 07:26:33;;;;;;;0.77;0.77;;;2.80;99.90;;;;;;5077198;28;20482;-83
2021/12/24 07:29:01;;;;;;;0.30;0.10;;;2.80;99.90;;;;;;5093222;28;20419;-84
2021/12/24 07:31:29;;;;;;;0.30;0.20;;;2.90;99.90;;;;;;5102017;28;20523;-84
2021/12/24 07:33:56;;;;;;;0.30;0.20;;;3.00;99.90;;;;;;5082810;28;20483;-84
2021/12/24 07:36:23;;;;;;;0.30;0.20;;;3.00;99.90;;;;;;5078342;28;20436;-85
2021/12/24 07:38:50;;;;;;;0.40;0.30;;;3.00;99.90;;;;;;5089269;28;20570;-85
2021/12/24 07:41:17;;;;;;;0.30;0.10;;;3.00;99.90;;;;;;5093576;28;20452;-85
2021/12/24 07:43:44;;;;;;;0.30;0.10;;;3.00;99.90;;;;;;5090068;28;20469;-84
2021/12/24 07:46:12;;;;;;;0.80;0.53;;;3.10;99.90;;;;;;5079150;28;20489;-85
2021/12/24 07:48:45;;;;;;;2.40;0.97;;;3.20;99.90;;;;;;5071042;28;20455;-83
2021/12/24 07:54:00;;;;;;;0.30;0.20;;;3.30;99.90;;;;;;5071251;28;20487;-84
2021/12/24 07:56:28;;;;;;;0.30;0.10;;;3.30;99.90;;;;;;5066032;28;20460;-84
2021/12/24 07:58:55;;;;;;;2.60;0.93;;;3.30;99.90;;;;;;5052240;28;20441;-84
2021/12/24 08:01:24;;;;;;;0.40;0.33;;;3.30;99.90;;;;;;5068937;28;20451;-86
2021/12/24 08:03:52;;;;;;;0.30;0.20;;;3.50;99.90;;;;;;5062877;28;21030;-84
2021/12/24 08:06:20;;;;;;;0.30;0.20;;;3.50;99.90;;;;;;5062795;28;20504;-84
2021/12/24 08:08:47;;;;;;;0.30;0.20;;;3.40;99.90;;;;;;5062036;28;20448;-85
2021/12/24 08:11:14;;;;;;;0.30;0.10;;;3.30;99.90;;;;;;5062053;28;20460;-85
2021/12/24 08:13:42;;;;;;;0.30;0.20;;;3.30;99.90;;;;;;5069023;28;21031;-85
2021/12/24 08:16:09;;;;;;;0.30;0.10;;;3.30;99.90;;;;;;5067517;28;20505;-86
2021/12/24 08:18:37;;;;;;;0.30;0.20;;;3.20;99.90;;;;;;5069612;28;20452;-84
2021/12/24 08:21:05;;;;;;;0.87;0.87;;;3.30;99.90;;;;;;5067452;28;20542;-86
2021/12/24 08:23:31;;;;;;;0.30;0.10;;;3.40;99.90;;;;;;5068948;28;20464;-84
2021/12/24 08:25:59;;;;;;;0.63;0.30;;;3.50;99.90;;;;;;5081906;28;20444;-83
2021/12/24 08:28:27;;;;;;;0.73;0.30;;;3.70;99.90;;;;;;5093362;28;20463;-85
2021/12/24 08:30:54;;;;;;;0.30;0.10;;;3.80;99.90;;;;;;5083684;28;21044;-84
2021/12/24 08:33:21;;;;;;;0.30;0.10;;;3.60;99.90;;;;;;5067693;28;20456;-86
2021/12/24 08:35:50;;;;;;;0.30;0.20;;;3.60;99.90;;;;;;5082604;28;20470;-87
2021/12/24 08:38:19;;;;;;;0.30;0.10;;;3.50;99.90;;;;;;5091628;28;20471;-86
2021/12/24 08:40:46;;;;;;;0.30;0.10;;;3.50;99.90;;;;;;5067926;28;20919;-84
2021/12/24 08:43:14;;;;;;;0.40;0.30;;;3.40;99.90;;;;;;5069162;28;20546;-84
2021/12/24 08:45:41;;;;;;;0.40;0.30;;;3.40;99.90;;;;;;5072191;28;20455;-84
2021/12/24 08:48:08;;;;;;;1.43;1.17;;;3.40;99.90;;;;;;5075511;28;21002;-84
2021/12/24 08:50:35;;;;;;;0.30;0.20;;;3.30;99.90;;;;;;5089721;28;20492;-83
2021/12/24 08:53:04;;;;;;;0.50;0.20;;;3.40;99.90;;;;;;5071232;28;20471;-88
2021/12/24 08:55:31;;;;;;;0.30;0.10;;;3.50;99.90;;;;;;5071046;28;20809;-84
2021/12/24 08:57:58;;;;;;;0.30;0.10;;;3.50;99.90;;;;;;5048347;28;20457;-84
2021/12/24 09:00:25;;;;;;;0.30;0.20;;;3.50;99.90;;;;;;5051327;28;20460;-84
2021/12/24 09:02:52;;;;;;;0.43;0.43;;;3.50;99.90;;;;;;5049363;28;21037;-83
2021/12/24 09:05:19;;;;;;;0.30;0.10;;;3.50;99.90;;;;;;5049424;28;20579;-83
2021/12/24 09:07:46;;;;;;;0.30;0.10;;;3.50;99.90;;;;;;5059599;28;20453;-85
2021/12/24 09:10:15;;;;;;;0.37;0.20;;;3.50;99.90;;;;;;5054614;28;20459;-84
2021/12/24 09:12:43;;;;;;;0.30;0.20;;;3.50;99.90;;;;;;5059863;28;21122;-84
2021/12/24 09:15:12;;;;;;;0.30;0.10;;;3.50;99.90;;;;;;5059983;28;20483;-84
2021/12/24 09:17:43;;;;;;;0.30;0.10;;;3.50;99.90;;;;;;5058668;28;20460;-86
2021/12/24 09:20:13;;;;;;;0.33;0.17;;;3.60;99.90;;;;;;5089472;28;20424;-84
2021/12/24 09:22:41;;;;;;;0.30;0.10;;;3.60;99.90;;;;;;5087761;28;20443;-86
2021/12/24 09:25:09;;;;;;;0.30;0.10;;;3.70;99.90;;;;;;5064310;28;20444;-85
2021/12/24 09:27:37;;;;;;;0.50;0.50;;;3.70;99.90;;;;;;5072749;28;20456;-88
2021/12/24 09:30:05;;;;;;;0.30;0.10;;;3.70;99.90;;;;;;5068237;28;20501;-86
2021/12/24 09:32:32;;;;;;;0.40;0.20;;;3.80;99.90;;;;;;5066796;28;20518;-84
2021/12/24 09:34:59;;;;;;;0.30;0.10;;;3.90;99.90;;;;;;5048790;28;20802;-84
2021/12/24 09:37:27;;;;;;;2.93;0.50;;;4.00;99.90;;;;;;5049486;28;20487;-88
2021/12/24 09:39:54;;;;;;;0.40;0.30;;;4.10;99.90;;;;;;5050250;28;20452;-85
2021/12/24 09:42:23;;;;;;;0.93;0.53;;;4.30;99.90;;;;;;5066887;28;20452;-87
2021/12/24 09:44:52;;;;;;;0.30;0.10;;;4.40;99.90;;;;;;5052612;28;20457;-84
2021/12/24 09:47:22;;;;;;;0.30;0.10;;;4.50;99.90;;;;;;5058025;28;20527;-84
2021/12/24 09:49:49;;;;;;;0.30;0.10;;;4.60;99.90;;;;;;5071730;28;20459;-84
2021/12/24 09:52:16;;;;;;;0.30;0.10;;;4.80;99.90;;;;;;5073669;28;20435;-84
2021/12/24 09:54:44;;;;;;;0.40;0.40;;;5.00;99.90;;;;;;5056401;28;20476;-84
2021/12/24 09:57:11;;;;;;;0.60;0.40;;;5.10;99.90;;;;;;5068678;28;20508;-84
2021/12/24 09:59:38;;;;;;;1.37;1.37;;;5.10;99.90;;;;;;5071875;28;21007;-85
2021/12/24 10:02:14;;;;;;;0.73;0.73;;;5.10;99.90;;;;;;5070965;28;20778;-84
2021/12/24 10:04:43;;;;;;;0.30;0.17;;;4.90;99.90;;;;;;5054858;28;20463;-85
2021/12/24 10:07:12;;;;;;;0.50;0.40;;;4.80;99.90;;;;;;5071351;28;20524;-84
2021/12/24 10:09:42;;;;;;;2.10;2.00;;;4.70;99.90;;;;;;5071054;28;20484;-86
2021/12/24 10:12:13;;;;;;;0.30;0.20;;;4.80;99.90;;;;;;5059983;28;20472;-84
2021/12/24 10:14:42;;;;;;;0.30;0.10;;;4.90;99.90;;;;;;5083952;28;20973;-85
2021/12/24 10:17:19;;;;;;;0.57;0.50;;;4.90;99.90;;;;;;5070690;28;20497;-84
2021/12/24 10:19:48;;;;;;;0.30;0.20;;;5.00;99.90;;;;;;5087673;28;20447;-89
2021/12/24 10:22:16;;;;;;;0.30;0.10;;;4.90;99.90;;;;;;5070067;28;20451;-86
2021/12/24 10:24:43;;;;;;;0.30;0.10;;;4.80;99.90;;;;;;5072387;28;20501;-84
2021/12/24 10:27:10;;;;;;;0.40;0.30;;;4.80;99.90;;;;;;5072095;28;20460;-85
2021/12/24 10:29:41;;;;;;;0.40;0.20;;;4.80;99.90;;;;;;5070921;28;20459;-86
2021/12/24 10:32:12;;;;;;;0.30;0.10;;;4.90;99.90;;;;;;5071463;28;20444;-86
2021/12/24 10:34:40;;;;;;;0.30;0.20;;;4.90;99.90;;;;;;5087742;28;20482;-84
2021/12/24 10:37:22;;;;;;;0.30;0.10;;;4.90;99.90;;;;;;5072470;28;21295;-84
2021/12/24 10:39:51;;;;;;;0.30;0.10;;;4.80;99.90;;;;;;5073611;28;20510;-84
2021/12/24 10:42:22;;;;;;;0.40;0.40;;;4.90;99.90;;;;;;5082803;28;20447;-84
2021/12/24 10:44:51;;;;;;;0.30;0.20;;;4.80;99.90;;;;;;5083090;28;20531;-85
2021/12/24 10:47:20;;;;;;;0.30;0.10;;;4.80;99.90;;;;;;5088700;28;20459;-86
2021/12/24 10:50:00;;;;;;;0.30;0.10;;;4.80;99.90;;;;;;5071746;28;20471;-85
2021/12/24 10:55:16;;;;;;;0.30;0.10;;;4.90;99.90;;;;;;5060179;28;20597;-84
2021/12/24 10:57:46;;;;;;;0.30;0.27;;;5.00;99.90;;;;;;5084309;28;20529;-85
2021/12/24 11:00:32;;;;;;;0.30;0.10;;;5.00;99.90;;;;;;5063256;28;20506;-83
2021/12/24 11:03:01;;;;;;;0.30;0.20;;;5.00;99.90;;;;;;5075885;28;20444;-87
2021/12/24 11:05:39;;;;;;;0.50;0.40;;;5.10;99.90;;;;;;5062582;28;20448;-84
2021/12/24 11:08:10;;;;;;;0.73;0.53;;;5.20;99.90;;;;;;5071206;28;20440;-88
2021/12/24 11:10:38;;;;;;;0.80;0.60;;;5.20;99.90;;;;;;5091420;28;20498;-87
2021/12/24 11:13:10;;;;;;;0.30;0.20;;;5.30;99.90;;;;;;5082252;28;20444;-85
2021/12/24 11:15:40;;;;;;;0.30;0.10;;;5.40;99.90;;;;;;5085009;28;20466;-84
2021/12/24 11:18:15;;;;;;;0.30;0.20;;;5.40;99.90;;;;;;5089294;28;21002;-86
2021/12/24 11:20:44;;;;;;;0.30;0.20;;;5.50;99.90;;;;;;5081161;28;20917;-87
2021/12/24 11:23:13;;;;;;;0.30;0.10;;;5.40;99.90;;;;;;5069727;28;20521;-88
2021/12/24 11:25:43;;;;;;;0.30;0.20;;;5.40;99.90;;;;;;5071607;28;20867;-87
2021/12/24 11:28:11;;;;;;;0.30;0.10;;;5.40;99.90;;;;;;5079276;28;20802;-88
2021/12/24 11:30:40;;;;;;;0.30;0.10;;;5.40;99.90;;;;;;5070034;28;20637;-87
2021/12/24 11:33:07;;;;;;;0.80;0.60;;;5.40;99.90;;;;;;5084720;28;20444;-87
2021/12/24 11:35:35;;;;;;;0.40;0.23;;;5.50;99.90;;;;;;5072420;28;20483;-87
2021/12/24 11:38:03;;;;;;;0.40;0.30;;;5.50;99.90;;;;;;5070954;28;20876;-86
2021/12/24 11:40:31;;;;;;;0.30;0.10;;;5.60;99.90;;;;;;5062134;28;20461;-87
2021/12/24 11:43:04;;;;;;;0.30;0.20;;;5.90;99.90;;;;;;5064344;28;20452;-87
2021/12/24 11:45:33;;;;;;;0.30;0.10;;;6.10;99.90;;;;;;5049509;28;20492;-87
2021/12/24 11:48:01;;;;;;;0.30;0.10;;;6.20;99.90;;;;;;5054975;28;20454;-84
2021/12/24 11:50:29;;;;;;;0.30;0.10;;;6.40;99.90;;;;;;5062978;28;20444;-87
2021/12/24 11:53:01;;;;;;;0.40;0.30;;;6.50;99.90;;;;;;5068752;28;20468;-87
2021/12/24 11:55:37;;;;;;;0.30;0.10;;;6.60;99.90;;;;;;5069405;28;20997;-85
2021/12/24 11:58:07;;;;;;;0.30;0.10;;;6.90;99.90;;;;;;5072248;28;20448;-85
2021/12/24 12:00:38;;;;;;;0.30;0.10;;;7.10;99.90;;;;;;5071602;28;20808;-84
2021/12/24 12:03:05;;;;;;;0.30;0.10;;;7.10;99.90;;;;;;5066316;28;20520;-85
2021/12/24 12:05:35;;;;;;;0.30;0.10;;;7.20;99.90;;;;;;5049497;28;20508;-87
2021/12/24 12:08:38;;;;;;;0.30;0.10;;;7.20;99.90;;;;;;5055532;28;20491;-85
2021/12/24 12:11:15;;;;;;;0.30;0.10;;;7.10;99.90;;;;;;5049857;28;20453;-85
2021/12/24 12:13:48;;;;;;;0.30;0.10;;;7.20;99.90;;;;;;5051809;28;20885;-84
2021/12/24 12:16:18;;;;;;;0.30;0.10;;;7.10;99.90;;;;;;5068981;28;20473;-86
2021/12/24 12:19:00;;;;;;;0.30;0.10;;;7.10;99.90;;;;;;5082942;28;20497;-85
2021/12/24 12:21:36;;;;;;;0.30;0.20;;;6.90;99.90;;;;;;5076514;28;20456;-85
2021/12/24 12:27:15;;;;;;;0.30;0.10;;;7.10;99.90;;;;;;5064597;28;20926;-84
2021/12/24 12:29:44;;;;;;;0.30;0.10;;;7.10;99.90;;;;;;5067968;28;20450;-87
2021/12/24 12:32:40;;;;;;;0.30;0.10;;;7.20;99.90;;;;;;5065750;28;20474;-84
2021/12/24 12:35:08;;;;;;;0.30;0.10;;;7.10;99.90;;;;;;5059134;28;20480;-85
2021/12/24 12:37:47;;;;;;;0.30;0.10;;;7.20;99.90;;;;;;5081054;28;20477;-84
2021/12/24 12:40:32;;;;;;;0.30;0.10;;;7.30;99.90;;;;;;5085123;28;20453;-85
2021/12/24 12:43:14;;;;;;;0.30;0.20;;;7.30;99.90;;;;;;5080316;28;20473;-85
2021/12/24 12:46:02;;;;;;;0.30;0.10;;;7.30;99.90;;;;;;5069770;28;20465;-85
2021/12/24 12:48:50;;;;;;;0.30;0.23;;;7.20;99.90;;;;;;5071741;28;20463;-84
2021/12/24 12:51:19;;;;;;;0.30;0.10;;;7.30;99.90;;;;;;5065594;28;20442;-85
2021/12/24 12:53:48;;;;;;;0.30;0.17;;;7.20;99.90;;;;;;5066631;28;20465;-85
2021/12/24 12:56:18;;;;;;;0.30;0.10;;;7.20;99.90;;;;;;5068477;28;20492;-86
2021/12/24 12:58:49;;;;;;;0.30;0.10;;;7.20;99.90;;;;;;5078568;28;20651;-85
2021/12/24 13:01:18;;;;;;;0.30;0.10;;;7.30;99.90;;;;;;5074203;28;20458;-85
2021/12/24 13:04:13;;;;;;;0.30;0.10;;;7.40;99.90;;;;;;5069243;28;20446;-86
2021/12/24 13:06:55;;;;;;;0.30;0.10;;;7.40;99.90;;;;;;5068551;28;20542;-85
2021/12/24 13:09:32;;;;;;;0.30;0.10;;;7.50;99.90;;;;;;5068684;28;20432;-87
2021/12/24 13:12:00;;;;;;;0.30;0.20;;;7.50;99.90;;;;;;5069402;28;20496;-84
2021/12/24 13:14:31;;;;;;;0.30;0.10;;;7.50;99.90;;;;;;5067437;28;20656;-85
2021/12/24 13:17:17;;;;;;;0.30;0.10;;;7.60;99.90;;;;;;5067808;28;20482;-85
2021/12/24 13:20:08;;;;;;;0.30;0.20;;;7.60;99.90;;;;;;5071332;28;20453;-87
2021/12/24 13:22:37;;;;;;;0.30;0.10;;;7.60;99.90;;;;;;5070805;28;20758;-85
2021/12/24 13:25:10;;;;;;;0.30;0.30;;;7.60;99.90;;;;;;5072911;28;20482;-85
2021/12/24 13:27:39;;;;;;;0.30;0.10;;;7.50;99.90;;;;;;5073029;28;20545;-86
2021/12/24 13:30:13;;;;;;;0.30;0.10;;;7.50;99.90;;;;;;5071903;28;20469;-87
2021/12/24 13:32:41;;;;;;;0.30;0.10;;;7.50;99.90;;;;;;5083957;28;20494;-86
2021/12/24 13:35:09;;;;;;;0.30;0.10;;;7.40;99.90;;;;;;5075679;28;20546;-85
2021/12/24 13:37:37;;;;;;;0.30;0.10;;;7.20;99.90;;;;;;5066438;28;20490;-85
2021/12/24 13:40:10;;;;;;;0.30;0.10;;;7.10;99.90;;;;;;5069509;28;20518;-87
2021/12/24 13:42:46;;;;;;;0.30;0.20;;;7.00;99.90;;;;;;5075957;28;20439;-85
2021/12/24 13:45:15;;;;;;;0.30;0.20;;;7.00;99.90;;;;;;5079972;28;20942;-85
2021/12/24 13:55:56;;;;;;;0.30;0.10;;;6.90;99.90;;;;;;5113332;28;20525;-87
2021/12/24 13:58:23;;;;;;;0.30;0.10;;;6.90;99.90;;;;;;5082133;28;20456;-86
2021/12/24 14:00:54;;;;;;;0.30;0.20;;;6.90;99.90;;;;;;5062999;28;20446;-86
2021/12/24 14:03:24;;;;;;;0.30;0.10;;;7.00;99.90;;;;;;5058835;28;20984;-85
2021/12/24 14:05:54;;;;;;;0.30;0.10;;;7.00;99.90;;;;;;5067524;28;20927;-84
2021/12/24 14:08:22;;;;;;;0.30;0.10;;;7.00;99.90;;;;;;5056872;28;20530;-85
2021/12/24 14:11:00;;;;;;;0.30;0.10;;;6.90;99.90;;;;;;5067165;28;20474;-89
2021/12/24 14:13:31;;;;;;;0.30;0.10;;;7.00;99.90;;;;;;5071270;28;20465;-86
2021/12/24 14:16:08;;;;;;;0.30;0.10;;;7.00;99.90;;;;;;5067063;28;20569;-86
2021/12/24 14:18:47;;;;;;;0.30;0.10;;;6.90;99.90;;;;;;5083240;28;20467;-86
2021/12/24 14:21:47;;;;;;;0.30;0.10;;;7.00;99.90;;;;;;5075754;28;20452;-86
2021/12/24 14:24:27;;;;;;;0.30;0.20;;;6.90;99.90;;;;;;5076289;28;20455;-87
2021/12/24 14:26:58;;;;;;;0.50;0.50;;;6.90;99.90;;;;;;5056967;28;20919;-85
2021/12/24 14:29:31;;;;;;;0.30;0.20;;;6.90;99.90;;;;;;5054459;28;20492;-86
2021/12/24 14:32:02;;;;;;;0.30;0.10;;;6.90;99.90;;;;;;5055290;28;20921;-85
2021/12/24 14:34:35;;;;;;;0.30;0.10;;;6.90;99.90;;;;;;5058340;28;20453;-88
2021/12/24 14:37:06;;;;;;;0.30;0.10;;;6.90;99.90;;;;;;5070361;28;20492;-85
2021/12/24 14:39:44;;;;;;;0.30;0.10;;;7.00;99.90;;;;;;5075160;28;21325;-86
2021/12/24 14:42:15;;;;;;;0.30;0.10;;;7.00;99.90;;;;;;5074033;28;20446;-89